Latest Weather Observations for Montague Island

IDN60801

Issued at 8:34 am EST Thursday 5 May 2016 (issued every 30 minutes, with the page automatically refreshed every 10 minutes)

About weather observations | Map of weather stations | Latest weather observations for NSW | Other Formats
Station Details ID: 069017 Name: MONTAGUE ISLAND LIGHTHOUSE Lat: -36.25 Lon: 150.23 Height: 52.0 m
Data from the previous 72 hours. | See also: Recent months at Montague Island
Date/Time
EST
Temp
°C
App
Temp
°C
Dew
Point
Rel
Hum
%
Delta-T
°C
Wind Press
QNH
hPa
Press
MSL
hPa
Rain
since 9 am
mm
Dir
 
Spd
km/h
Gust
km/h
Spd
kts
Gust
kts
05/08:30am 14.8 10.9 8.7 67 3.1 SW 19 24 10 13 1019.2 1019.1 0.2
05/08:00am 14.6 11.0 9.8 73 2.5 SW 19 24 10 13 1019.0 1018.9 0.2
05/07:30am 14.3 11.3 9.3 72 2.6 SSW 15 17 8 9 1018.8 1018.7 0.2
05/07:00am 14.1 10.2 8.5 69 2.8 SW 19 22 10 12 1018.5 1018.4 0.2
05/06:30am 13.7 9.5 8.3 70 2.7 SW 20 28 11 15 1018.2 1018.1 0.2
05/06:00am 13.6 9.9 9.5 76 2.1 SW 19 22 10 12 1017.9 1017.8 0.2
05/05:30am 13.7 10.3 10.5 81 1.7 SW 19 22 10 12 1017.7 1017.6 0.2
05/05:00am 13.5 10.3 10.1 80 1.8 SSW 17 22 9 12 1017.4 1017.3 0.2
05/04:30am 13.5 10.3 11.2 86 1.2 SW 19 24 10 13 1017.2 1017.1 0.2
05/04:00am 13.7 10.0 11.4 86 1.2 SW 22 26 12 14 1016.9 1016.8 0.2
05/03:30am 13.8 11.6 12.0 89 1.0 SW 15 19 8 10 1016.9 1016.8 0.2
05/03:00am 14.2 13.2 12.4 89 1.0 SW 9 13 5 7 1016.8 1016.7 0.2
05/02:30am 13.8 13.0 11.8 88 1.1 WSW 7 9 4 5 1017.0 1016.9 0.2
05/02:00am 13.7 12.8 11.4 86 1.2 W 7 11 4 6 1017.1 1017.0 0.2
05/01:30am 14.6 13.2 12.3 86 1.3 WNW 11 15 6 8 1017.2 1017.1 0.2
05/01:00am 14.9 14.0 12.6 86 1.3 NW 9 13 5 7 1017.2 1017.1 0.2
05/12:30am 15.4 14.9 12.7 84 1.5 WNW 7 13 4 7 1017.4 1017.3 0.2
05/12:00am 15.6 15.7 12.7 83 1.6 NW 4 7 2 4 1017.6 1017.5 0.2
 
Date/Time
EST
Temp
°C
App
Temp
°C
Dew
Point
Rel
Hum
%
Delta-T
°C
Wind Press
QNH
hPa
Press
MSL
hPa
Rain
since 9 am
mm
Dir
 
Spd
km/h
Gust
km/h
Spd
kts
Gust
kts
04/11:30pm 15.3 14.8 12.2 82 1.7 WNW 6 9 3 5 1017.8 1017.7 0.2
04/11:00pm 15.2 14.7 12.0 81 1.7 W 6 9 3 5 1018.0 1017.9 0.2
04/10:30pm 15.5 14.5 12.3 81 1.8 W 9 11 5 6 1018.2 1018.1 0.2
04/10:00pm 15.6 13.9 12.4 81 1.8 W 13 17 7 9 1018.3 1018.2 0.2
04/09:30pm 15.6 14.3 12.4 81 1.8 W 11 15 6 8 1018.3 1018.2 0.2
04/09:00pm 15.7 14.0 12.3 80 1.9 W 13 15 7 8 1018.1 1018.0 0.2
04/08:30pm 16.2 14.9 12.6 79 2.0 W 11 13 6 7 1017.9 1017.8 0.2
04/08:00pm 16.4 14.4 12.6 78 2.1 W 15 17 8 9 1017.9 1017.8 0.2
04/07:30pm 17.3 16.6 13.2 77 2.3 N 9 13 5 7 1017.7 1017.6 0.2
04/07:00pm 17.3 15.7 12.8 75 2.5 NE 13 19 7 10 1017.6 1017.5 0.2
04/06:30pm 17.7 15.9 12.2 70 3.0 ENE 13 19 7 10 1017.2 1017.1 0.0
04/06:00pm 17.5 15.7 12.2 71 2.9 ENE 13 17 7 9 1016.7 1016.6 0.0
04/05:30pm 17.1 14.0 11.6 70 3.0 E 19 24 10 13 1016.2 1016.1 0.0
04/05:00pm 17.0 14.2 11.3 69 3.1 E 17 26 9 14 1015.9 1015.8 0.0
04/04:30pm 17.0 14.1 11.1 68 3.2 E 17 22 9 12 1015.7 1015.6 0.0
04/04:00pm 16.9 13.6 11.0 68 3.2 E 19 22 10 12 1015.5 1015.4 0.0
04/03:30pm 16.9 13.5 10.5 66 3.4 ESE 19 24 10 13 1015.3 1015.2 0.0
04/03:00pm 16.7 13.6 10.3 66 3.4 ESE 17 20 9 11 1015.3 1015.2 0.0
04/02:30pm 16.7 13.6 10.3 66 3.4 SE 17 22 9 12 1015.2 1015.1 0.0
04/02:00pm 16.7 13.7 10.5 67 3.3 SE 17 22 9 12 1015.1 1015.0 0.0
04/01:30pm 16.8 13.3 10.2 65 3.5 SSE 19 24 10 13 1015.0 1014.9 0.0
04/01:00pm 16.8 13.2 9.7 63 3.7 SSE 19 28 10 15 1014.9 1014.8 0.0
04/12:30pm 16.6 12.9 10.0 65 3.5 SSE 20 26 11 14 1015.0 1014.9 0.0
04/12:00pm 16.7 13.5 9.9 64 3.6 SE 17 26 9 14 1015.1 1015.0 0.0
04/11:30am 16.1 11.8 9.5 65 3.4 SSE 22 30 12 16 1015.1 1015.0 0.0
04/11:00am 16.2 12.0 9.6 65 3.4 SSE 22 30 12 16 1015.2 1015.1 0.0
04/10:30am 15.9 11.8 10.2 69 3.0 SSE 22 30 12 16 1015.3 1015.2 0.0
04/10:00am 15.7 11.5 9.8 68 3.1 S 22 32 12 17 1015.0 1014.9 0.0
04/09:30am 15.8 11.7 10.1 69 3.0 SSE 22 35 12 19 1014.7 1014.6 0.0
04/09:00am 15.5 11.2 10.7 73 2.5 SSE 24 41 13 22 1014.4 1014.3 0.0
04/08:30am 15.7 11.1 10.9 73 2.6 SSE 26 37 14 20 1014.2 1014.1 0.0
04/08:00am 15.4 10.6 10.4 72 2.6 SSE 26 39 14 21 1013.6 1013.5 0.0
04/07:30am 15.2 11.3 10.8 75 2.3 S 22 32 12 17 1013.3 1013.2 0.0
04/07:00am 15.3 11.5 11.1 76 2.2 S 22 30 12 16 1012.4 1012.4 0.0
04/06:30am 15.6 11.2 11.8 78 2.1 SSE 26 39 14 21 1011.7 1011.7 0.0
04/06:00am 15.6 12.0 11.8 78 2.1 S 22 32 12 17 1011.2 1011.2 0.0
04/05:30am 16.1 11.6 12.5 79 2.0 SSE 28 37 15 20 1010.5 1010.5 0.0
04/05:00am 16.2 11.6 12.4 78 2.1 SSE 28 35 15 19 1010.1 1010.1 0.0
04/04:30am 16.6 11.4 12.9 79 2.1 SSE 32 44 17 24 1009.4 1009.4 0.0
04/04:00am 16.9 12.3 13.4 80 2.0 SSE 30 43 16 23 1008.9 1008.9 0.0
04/03:30am 16.9 12.9 14.0 83 1.7 SSE 28 39 15 21 1008.4 1008.4 0.0
04/03:00am 17.6 11.7 14.7 83 1.7 SSE 39 46 21 25 1007.9 1007.9 0.0
04/02:44am 18.4 15.9 14.1 76 2.5 SSW 20 44 11 24 1007.6 1007.6 0.0
04/02:30am 17.8 14.7 10.2 61 4.1 W 17 26 9 14 1007.5 1007.5 0.0
04/02:00am 18.0 13.9 7.7 51 5.3 NNW 19 24 10 13 1007.0 1006.9 0.0
04/01:30am 17.4 14.9 9.8 61 4.0 NW 13 20 7 11 1007.0 1006.9 0.0
04/01:00am 17.8 15.5 10.4 62 4.0 NW 13 19 7 10 1006.9 1006.8 0.0
04/12:30am 18.4 15.6 10.0 58 4.5 NNW 15 19 8 10 1006.8 1006.7 0.0
04/12:00am 18.8 15.2 8.2 50 5.5 N 17 20 9 11 1006.7 1006.6 0.0
 
Date/Time
EST
Temp
°C
App
Temp
°C
Dew
Point
Rel
Hum
%
Delta-T
°C
Wind Press
QNH
hPa
Press
MSL
hPa
Rain
since 9 am
mm
Dir
 
Spd
km/h
Gust
km/h
Spd
kts
Gust
kts
03/11:30pm 18.9 15.4 8.8 52 5.3 N 17 20 9 11 1006.7 1006.6 0.0
03/11:00pm 19.4 16.1 8.1 48 5.9 N 15 19 8 10 1006.7 1006.6 0.0
03/10:30pm 19.9 17.7 7.9 46 6.2 NNE 9 13 5 7 1006.7 1006.6 0.0
03/10:00pm 19.9 17.3 4.4 36 7.5 N 7 13 4 7 1006.6 1006.5 0.0
03/09:30pm 19.6 16.7 4.9 38 7.2 NNW 9 13 5 7 1006.3 1006.2 0.0
03/09:00pm 19.1 16.7 8.7 51 5.4 NW 11 15 6 8 1005.9 1005.8 0.0
03/08:30pm 19.5 16.2 7.9 47 6.0 WNW 15 17 8 9 1005.3 1005.2 0.0
03/08:00pm 19.2 15.7 7.3 46 6.1 WNW 15 19 8 10 1004.9 1004.8 0.0
03/07:30pm 19.3 16.9 11.3 60 4.4 WNW 15 20 8 11 1004.2 1004.1 0.0
03/07:00pm 20.3 16.5 11.2 56 5.0 NNW 22 32 12 17 1003.6 1003.5 0.0
03/06:30pm 20.6 15.4 8.9 47 6.2 NNW 26 35 14 19 1002.8 1002.7 0.0
03/06:00pm 20.7 14.4 9.0 47 6.2 N 32 41 17 22 1002.1 1002.0 0.0
03/05:30pm 21.4 14.4 8.3 43 6.9 NNW 35 46 19 25 1001.2 1001.1 0.0
03/05:00pm 21.6 16.3 9.8 47 6.4 N 28 41 15 22 1001.2 1001.1 0.0
03/04:46pm 21.5 15.7 9.4 46 6.5 N 30 43 16 23 1001.2 1001.1 0.0
03/04:30pm 22.2 18.8 9.0 43 7.1 N 17 24 9 13 1001.2 1001.1 0.0
03/04:00pm 22.4 19.8 7.8 39 7.7 N 11 19 6 10 1001.3 1001.2 0.0
03/03:30pm 22.8 19.8 7.8 38 7.9 NNE 13 22 7 12 1001.3 1001.2 0.0
03/03:00pm 21.3 17.8 13.5 61 4.5 NNE 24 30 13 16 1001.3 1001.2 0.0
03/02:30pm 21.0 15.0 12.2 57 5.0 NNE 35 43 19 23 1001.2 1001.1 0.0
03/02:00pm 20.7 14.5 9.9 50 5.8 NNE 33 46 18 25 1001.5 1001.4 0.0
03/01:30pm 20.4 15.3 10.5 53 5.4 NE 28 35 15 19 1002.2 1002.1 0.0
03/01:00pm 19.9 13.9 10.0 53 5.3 NNE 32 41 17 22 1003.1 1003.0 0.0
03/12:30pm 19.6 13.4 9.2 51 5.5 N 32 41 17 22 1003.7 1003.6 0.0
03/12:00pm 19.5 14.1 7.9 47 6.0 N 26 37 14 20 1004.5 1004.4 0.0
03/11:30am 20.3 16.2 8.6 47 6.1 N 20 32 11 17 1005.2 1005.1 0.0
03/11:00am 19.0 14.0 8.1 49 5.6 NNW 24 30 13 16 1005.7 1005.6 0.0
03/10:30am 18.5 13.8 7.9 50 5.4 NNW 22 33 12 18 1006.2 1006.1 0.0
03/10:00am 17.9 12.7 8.7 55 4.8 NNW 26 35 14 19 1006.5 1006.4 0.0
03/09:30am 17.1 9.5 6.0 48 5.4 NNW 35 46 19 25 1006.8 1006.7 0.0
03/09:00am 16.2 9.1 7.9 58 4.2 NNW 35 44 19 24 1007.1 1007.0 0.0
03/08:30am 15.8 9.5 7.3 57 4.2 NNW 30 39 16 21 1007.6 1007.6 0.0
03/08:00am 15.2 8.8 8.4 64 3.5 NNW 32 39 17 21 1007.5 1007.5 0.0
03/07:30am 14.8 8.7 8.1 64 3.4 NNW 30 41 16 22 1007.8 1007.8 0.0
03/07:00am 14.5 10.4 8.5 67 3.0 NNW 20 30 11 16 1007.9 1007.9 0.0
03/06:30am 14.7 10.4 8.0 64 3.4 NNW 20 28 11 15 1007.8 1007.8 0.0
03/06:00am 14.8 10.1 6.1 56 4.2 NNW 20 28 11 15 1007.8 1007.8 0.0
03/05:30am 14.4 10.2 5.7 56 4.1 NNW 17 24 9 13 1008.0 1008.0 0.0
03/05:00am 14.0 10.0 6.6 61 3.6 NW 17 24 9 13 1008.0 1008.0 0.0
03/04:30am 14.4 10.0 6.7 60 3.7 NNW 19 24 10 13 1007.9 1007.9 0.0
03/04:00am 14.4 11.5 6.7 60 3.8 NW 11 15 6 8 1007.8 1007.8 0.0
03/03:30am 14.8 10.2 5.6 54 4.4 WNW 19 28 10 15 1007.9 1007.9 0.0
03/03:00am 14.7 10.1 5.5 54 4.4 NW 19 28 10 15 1008.5 1008.5 0.0
03/02:30am 15.6 8.5 5.5 51 4.8 WNW 32 48 17 26 1009.0 1009.0 0.0
03/02:00am 15.2 10.4 5.7 53 4.6 NW 20 32 11 17 1009.3 1009.3 0.0
03/01:30am 15.4 9.8 3.2 44 5.5 NNW 22 33 12 18 1009.7 1009.7 0.0
03/01:00am 15.5 10.6 3.9 46 5.4 WNW 19 30 10 16 1010.0 1010.0 0.0
03/12:30am 14.9 10.4 4.3 49 4.9 WNW 17 24 9 13 1010.5 1010.5 0.0
03/12:00am 14.9 10.2 3.4 46 5.2 WNW 17 24 9 13 1010.7 1010.7 0.0
 
Date/Time
EST
Temp
°C
App
Temp
°C
Dew
Point
Rel
Hum
%
Delta-T
°C
Wind Press
QNH
hPa
Press
MSL
hPa
Rain
since 9 am
mm
Dir
 
Spd
km/h
Gust
km/h
Spd
kts
Gust
kts
02/11:30pm 15.4 10.8 3.5 45 5.4 WNW 17 24 9 13 1011.1 1011.1 0.0
02/11:00pm 15.7 9.4 3.5 44 5.6 WNW 26 33 14 18 1011.2 1011.2 0.0
02/10:30pm 15.4 8.8 4.2 47 5.2 W 28 39 15 21 1011.6 1011.6 0.0
02/10:00pm 15.8 8.4 4.2 46 5.4 WNW 32 41 17 22 1011.5 1011.5 0.0
02/09:30pm 15.7 8.1 3.8 45 5.5 W 33 44 18 24 1011.3 1011.3 0.0
02/09:00pm 15.9 6.3 4.6 47 5.3 W 44 54 24 29 1011.2 1011.2 0.0
02/08:30pm 16.0 5.6 4.4 46 5.4 W 48 57 26 31 1011.0 1011.0 0.0
02/08:21pm 15.9 8.8 5.5 50 5.0 W 32 52 17 28 1011.1 1011.1 0.0
02/08:00pm 16.1 10.8 4.8 47 5.4 WSW 22 32 12 17 1011.4 1011.4 0.0
02/07:30pm 16.0 10.0 7.0 55 4.5 W 28 35 15 19 1011.4 1011.4 0.0
02/07:00pm 16.5 11.7 9.0 61 3.9 W 24 28 13 15 1011.1 1011.1 0.0
02/06:30pm 16.8 11.8 9.5 62 3.8 WSW 26 32 14 17 1011.2 1011.2 0.0
02/06:00pm 16.8 13.4 9.0 60 4.0 W 17 22 9 12 1011.0 1011.0 0.0
02/05:30pm 17.8 15.1 7.5 51 5.2 N 11 13 6 7 1010.9 1010.9 0.0
02/05:00pm 17.7 14.8 8.0 53 5.0 NNE 13 20 7 11 1010.5 1010.5 0.0
02/04:30pm 17.4 13.7 8.0 54 4.8 NNE 17 22 9 12 1010.3 1010.3 0.0
02/04:00pm 17.4 13.3 6.0 47 5.6 NNE 17 22 9 12 1010.4 1010.4 0.0
02/03:30pm 17.9 13.7 3.8 39 6.6 NE 15 20 8 11 1010.1 1010.1 0.0
02/03:00pm 17.9 13.8 4.5 41 6.4 NE 15 20 8 11 1010.4 1010.4 0.0
02/02:30pm 17.9 13.8 6.1 46 5.8 NNE 17 22 9 12 1011.0 1011.0 0.0
02/02:00pm 17.8 12.6 3.3 38 6.7 NNE 20 26 11 14 1011.1 1011.1 0.0
02/01:30pm 18.0 13.4 3.9 39 6.6 NNE 17 22 9 12 1011.2 1011.2 0.0
02/01:00pm 17.5 13.9 4.8 43 6.1 NNE 13 19 7 10 1011.4 1011.4 0.0
02/12:30pm 17.2 14.3 4.5 43 6.0 NE 9 15 5 8 1012.1 1012.1 0.0
02/12:00pm 17.6 14.9 3.9 40 6.4 ENE 7 11 4 6 1012.7 1012.7 0.0
02/11:30am 17.8 15.6 5.4 44 6.0 NNW 6 13 3 7 1013.4 1013.3 0.0
02/11:00am 17.5 15.0 3.8 40 6.4 NW 6 9 3 5 1014.0 1013.9 0.0
02/10:30am 17.1 14.9 5.1 45 5.8 NE 6 9 3 5 1014.4 1014.3 0.0
02/10:00am 16.8 14.6 5.4 47 5.5 NE 6 9 3 5 1014.9 1014.8 0.0
02/09:30am 16.5 14.3 5.2 47 5.4 ENE 6 9 3 5 1014.9 1014.8 0.0
02/09:00am 16.4 15.0 5.4 48 5.3 S 2 6 1 3 1015.0 1014.9 0.0

Other Formats:

Comma delimited format used in spreadsheet applications
http://www.bom.gov.au/fwo/IDN60801/IDN60801.94939.axf

JavaScript Object Notation format (JSON) in row-major order
http://www.bom.gov.au/fwo/IDN60801/IDN60801.94939.json